Time;durP1;ratioP1;P1;durP2;ratioP2;P2;SDS_P1;SDS_P2;PMS_P1;PMS_P2;Temp;Humidity;BMP_temperature;BMP_pressure;BME280_temperature;BME280_humidity;BME280_pressure;Samples;Min_cycle;Max_cycle;Signal;HPM_P1;HPM_P2
2023/06/20 00:00:35;;;;;;;5.35;2.55;;;18.20;99.90;;;;;;5054726;28;20040;-42
2023/06/20 00:03:00;;;;;;;4.80;2.60;;;18.20;99.90;;;;;;5055012;28;20032;-42
2023/06/20 00:05:26;;;;;;;5.63;2.65;;;18.20;99.90;;;;;;5054873;28;20551;-44
2023/06/20 00:07:54;;;;;;;5.65;2.55;;;18.10;99.90;;;;;;5054749;28;20082;-44
2023/06/20 00:10:20;;;;;;;4.80;2.25;;;18.10;99.90;;;;;;5053078;28;20040;-44
2023/06/20 00:12:45;;;;;;;4.88;2.60;;;18.10;99.90;;;;;;5053126;28;20523;-44
2023/06/20 00:15:11;;;;;;;5.60;2.63;;;18.00;99.90;;;;;;5052323;28;20017;-50
2023/06/20 00:17:38;;;;;;;6.30;2.85;;;17.90;99.90;;;;;;5052869;28;20029;-45
2023/06/20 00:20:05;;;;;;;4.40;2.13;;;17.90;99.90;;;;;;5051819;28;20104;-43
2023/06/20 00:22:34;;;;;;;6.13;3.08;;;17.90;99.90;;;;;;5052781;28;20033;-47
2023/06/20 00:25:06;;;;;;;5.80;2.78;;;17.90;99.90;;;;;;5052685;28;20462;-49
2023/06/20 00:27:32;;;;;;;6.47;2.65;;;17.80;99.90;;;;;;5053004;28;20067;-51
2023/06/20 00:29:57;;;;;;;6.05;2.75;;;17.80;99.90;;;;;;5052848;28;20064;-54
2023/06/20 00:32:23;;;;;;;6.07;2.53;;;17.80;99.90;;;;;;5052663;28;20032;-43
2023/06/20 00:34:49;;;;;;;6.15;2.97;;;17.90;99.90;;;;;;5052372;28;20029;-57
2023/06/20 00:37:14;;;;;;;6.50;2.80;;;17.80;99.90;;;;;;5052681;28;20136;-47
2023/06/20 00:39:40;;;;;;;5.22;2.83;;;17.90;99.90;;;;;;5052364;28;20104;-51
2023/06/20 00:42:20;;;;;;;11.70;3.03;;;17.90;99.90;;;;;;5052637;28;20025;-54
2023/06/20 00:44:46;;;;;;;5.07;2.50;;;17.90;99.90;;;;;;5049832;28;20033;-50
2023/06/20 00:47:15;;;;;;;6.80;2.78;;;18.00;99.90;;;;;;5052517;28;20040;-50
2023/06/20 00:49:42;;;;;;;6.03;2.60;;;18.00;99.90;;;;;;5052421;28;20025;-50
2023/06/20 00:52:08;;;;;;;6.20;2.67;;;18.00;99.90;;;;;;5052372;28;20393;-54
2023/06/20 00:54:34;;;;;;;6.68;2.28;;;18.00;99.90;;;;;;5052326;28;20020;-47
2023/06/20 00:57:00;;;;;;;4.80;2.63;;;18.00;99.90;;;;;;5052184;28;20029;-51
2023/06/20 00:59:26;;;;;;;6.60;2.83;;;18.00;99.90;;;;;;5052338;28;20017;-53
2023/06/20 01:01:53;;;;;;;6.75;2.80;;;17.90;99.90;;;;;;5052054;28;20094;-55
2023/06/20 01:04:21;;;;;;;5.45;2.75;;;17.90;99.90;;;;;;5052352;28;20067;-51
2023/06/20 01:07:17;;;;;;;5.72;2.75;;;17.90;99.90;;;;;;5051927;28;20043;-57
2023/06/20 01:09:57;;;;;;;6.30;2.80;;;17.90;99.90;;;;;;5041032;28;20078;-51
2023/06/20 01:12:32;;;;;;;4.75;2.55;;;17.80;99.90;;;;;;5052139;28;20021;-48
2023/06/20 01:15:22;;;;;;;5.40;2.60;;;17.70;99.90;;;;;;5052719;28;20033;-45
2023/06/20 01:18:04;;;;;;;4.78;2.67;;;17.70;99.90;;;;;;5052254;28;20028;-44
2023/06/20 01:20:54;;;;;;;8.43;2.58;;;17.60;99.90;;;;;;5052270;28;20368;-42
2023/06/20 01:23:25;;;;;;;4.88;2.78;;;17.60;99.90;;;;;;5040455;28;20397;-42
2023/06/20 01:25:59;;;;;;;5.25;2.72;;;17.60;99.90;;;;;;5050762;28;20037;-42
2023/06/20 01:28:39;;;;;;;6.85;3.08;;;17.60;99.90;;;;;;5051637;28;20013;-42
2023/06/20 01:31:10;;;;;;;5.50;2.60;;;17.60;99.90;;;;;;5051477;28;20272;-51
2023/06/20 01:34:02;;;;;;;6.00;2.55;;;17.60;99.90;;;;;;5051184;28;20027;-47
2023/06/20 01:36:33;;;;;;;5.50;3.10;;;17.60;99.90;;;;;;5049617;28;20048;-43
2023/06/20 01:39:05;;;;;;;6.18;3.80;;;17.60;99.90;;;;;;5051240;28;20041;-53
2023/06/20 01:41:34;;;;;;;5.28;2.78;;;17.60;99.90;;;;;;5051207;28;20216;-50
2023/06/20 01:44:02;;;;;;;;;;;17.60;99.90;;;;;;5051526;28;20025;-50
2023/06/20 01:46:29;;;;;;;7.97;3.53;;;17.50;99.90;;;;;;5051101;28;19913;-47
2023/06/20 01:48:56;;;;;;;6.30;3.45;;;17.50;99.90;;;;;;5051327;28;20021;-52
2023/06/20 01:51:22;;;;;;;7.68;4.30;;;17.50;99.90;;;;;;5051078;28;20047;-49
2023/06/20 01:53:49;;;;;;;8.10;3.40;;;17.50;99.90;;;;;;5051105;28;20496;-45
2023/06/20 01:56:17;;;;;;;6.05;3.35;;;17.40;99.90;;;;;;5051102;28;20025;-44
2023/06/20 01:58:43;;;;;;;5.50;3.08;;;17.40;99.90;;;;;;5050860;28;20351;-45
2023/06/20 02:01:11;;;;;;;6.72;3.22;;;17.40;99.90;;;;;;5051407;28;20028;-52
2023/06/20 02:03:41;;;;;;;5.75;3.25;;;17.40;99.90;;;;;;5050847;28;20075;-44
2023/06/20 02:06:09;;;;;;;7.22;3.55;;;17.40;99.90;;;;;;5050897;28;20128;-52
2023/06/20 02:08:37;;;;;;;7.78;3.33;;;17.30;99.90;;;;;;5051000;28;20027;-54
2023/06/20 02:11:03;;;;;;;6.80;3.63;;;17.30;99.90;;;;;;5050497;28;20505;-55
2023/06/20 02:13:30;;;;;;;5.90;3.25;;;17.30;99.90;;;;;;5050869;28;20094;-53
2023/06/20 02:15:57;;;;;;;7.78;3.97;;;17.30;99.90;;;;;;5050741;28;20071;-45
2023/06/20 02:18:23;;;;;;;8.40;3.67;;;17.30;99.90;;;;;;5051058;28;20094;-52
2023/06/20 02:20:53;;;;;;;6.88;3.58;;;17.30;99.90;;;;;;5050657;28;20493;-50
2023/06/20 02:23:26;;;;;;;6.80;3.22;;;17.20;99.90;;;;;;5050783;28;20032;-53
2023/06/20 02:25:56;;;;;;;9.10;3.80;;;17.20;99.90;;;;;;5050386;28;20036;-47
2023/06/20 02:28:26;;;;;;;7.60;3.20;;;17.20;99.90;;;;;;5050920;28;20020;-56
2023/06/20 02:30:53;;;;;;;6.07;3.65;;;17.20;99.90;;;;;;5050285;28;20417;-46
2023/06/20 02:33:21;;;;;;;8.90;3.60;;;17.20;99.90;;;;;;5050783;28;20059;-53
2023/06/20 02:35:49;;;;;;;5.97;3.47;;;17.30;99.90;;;;;;5050638;28;20029;-47
2023/06/20 02:38:14;;;;;;;6.93;3.58;;;17.20;99.90;;;;;;5049781;28;20045;-44
2023/06/20 02:40:40;;;;;;;7.15;3.72;;;17.30;99.90;;;;;;5050440;28;20025;-45
2023/06/20 02:43:06;;;;;;;7.35;3.95;;;17.30;99.90;;;;;;5050291;28;20063;-48
2023/06/20 02:45:32;;;;;;;6.93;3.55;;;17.40;99.90;;;;;;5050301;28;20033;-48
2023/06/20 02:48:32;;;;;;;5.30;3.17;;;17.30;99.90;;;;;;5050215;28;20033;-51
2023/06/20 02:51:16;;;;;;;7.43;3.50;;;17.40;99.90;;;;;;5050191;28;20079;-57
2023/06/20 02:53:56;;;;;;;6.22;3.47;;;17.40;99.90;;;;;;5037530;28;20029;-44
2023/06/20 02:56:23;;;;;;;9.00;4.05;;;17.40;99.90;;;;;;5050453;28;20021;-47
2023/06/20 02:58:52;;;;;;;6.72;3.65;;;17.40;99.90;;;;;;5049943;28;20055;-52
2023/06/20 03:01:26;;;;;;;6.55;3.50;;;17.40;99.90;;;;;;5050343;28;20390;-46
2023/06/20 03:03:54;;;;;;;8.43;4.03;;;17.40;99.90;;;;;;5050155;28;20478;-43
2023/06/20 03:06:27;;;;;;;9.00;4.10;;;17.40;99.90;;;;;;5050262;28;20159;-52
2023/06/20 03:08:53;;;;;;;6.70;3.80;;;17.50;99.90;;;;;;5050172;28;20057;-52
2023/06/20 03:11:19;;;;;;;7.55;3.88;;;17.50;99.90;;;;;;5050108;28;20108;-48
2023/06/20 03:13:45;;;;;;;6.75;4.32;;;17.60;99.90;;;;;;5050188;28;20187;-52
2023/06/20 03:16:12;;;;;;;8.60;4.68;;;17.60;99.90;;;;;;5050180;28;20139;-41
2023/06/20 03:18:38;;;;;;;8.15;4.55;;;17.70;99.90;;;;;;5050398;28;20039;-53
2023/06/20 03:21:04;;;;;;;6.78;3.97;;;17.70;99.90;;;;;;5049922;28;20477;-48
2023/06/20 03:23:30;;;;;;;7.30;4.40;;;17.70;99.90;;;;;;5048593;28;20029;-43
2023/06/20 03:25:55;;;;;;;11.20;4.80;;;17.80;99.90;;;;;;5050219;28;20358;-54
2023/06/20 03:28:22;;;;;;;8.30;4.82;;;17.80;99.90;;;;;;5049946;28;20507;-45
2023/06/20 03:30:48;;;;;;;8.48;4.70;;;17.80;99.90;;;;;;5049726;28;20100;-43
2023/06/20 03:33:13;;;;;;;11.40;5.25;;;17.80;99.90;;;;;;5050078;28;20108;-44
2023/06/20 03:35:40;;;;;;;9.77;5.85;;;17.90;99.90;;;;;;5049807;28;20029;-57
2023/06/20 03:38:05;;;;;;;10.40;5.32;;;17.90;99.90;;;;;;5049726;28;20059;-47
2023/06/20 03:40:31;;;;;;;9.40;5.28;;;18.00;99.90;;;;;;5049913;28;20505;-59
2023/06/20 03:42:57;;;;;;;11.00;6.05;;;18.00;99.90;;;;;;5049297;28;20049;-44
2023/06/20 03:45:23;;;;;;;14.40;6.20;;;18.10;99.90;;;;;;5050214;28;20041;-47
2023/06/20 03:47:48;;;;;;;10.18;5.38;;;18.10;99.90;;;;;;5049649;28;20108;-42
2023/06/20 03:50:14;;;;;;;9.60;5.53;;;18.20;99.90;;;;;;5052634;28;20104;-55
2023/06/20 03:52:40;;;;;;;9.90;5.43;;;18.20;99.90;;;;;;5053444;28;20040;-51
2023/06/20 03:55:06;;;;;;;10.95;5.50;;;18.20;99.90;;;;;;5053032;28;20047;-54
2023/06/20 03:57:32;;;;;;;8.32;4.97;;;18.30;99.90;;;;;;5053094;28;20033;-53
2023/06/20 03:59:57;;;;;;;15.13;5.50;;;18.30;99.90;;;;;;5053334;28;20112;-53
2023/06/20 04:02:23;;;;;;;10.57;5.45;;;18.40;99.90;;;;;;5051856;28;20477;-53
2023/06/20 04:04:50;;;;;;;10.88;5.85;;;18.40;99.90;;;;;;5052898;28;20056;-50
2023/06/20 04:07:18;;;;;;;10.60;5.40;;;18.40;99.90;;;;;;5053338;28;20029;-56
2023/06/20 04:09:50;;;;;;;11.32;5.45;;;18.40;99.90;;;;;;5053165;28;20025;-54
2023/06/20 04:12:16;;;;;;;12.15;6.22;;;18.40;99.90;;;;;;5052642;28;20418;-43
2023/06/20 04:14:42;;;;;;;10.75;5.57;;;18.40;99.90;;;;;;5053250;28;20028;-45
2023/06/20 04:17:07;;;;;;;11.82;5.60;;;18.40;99.90;;;;;;5052892;28;20029;-44
2023/06/20 04:19:33;;;;;;;11.65;5.68;;;18.40;99.90;;;;;;5052761;28;20095;-41
2023/06/20 04:21:59;;;;;;;19.40;6.20;;;18.40;99.90;;;;;;5085264;28;20021;-47
2023/06/20 04:24:25;;;;;;;14.25;5.90;;;18.50;99.90;;;;;;5052693;28;20493;-41
2023/06/20 04:26:51;;;;;;;13.10;6.47;;;18.50;99.90;;;;;;5052853;28;20076;-44
2023/06/20 04:29:16;;;;;;;10.23;5.70;;;18.50;99.90;;;;;;5052695;28;20485;-41
2023/06/20 04:31:42;;;;;;;11.80;6.00;;;18.50;99.90;;;;;;5052901;28;20055;-48
2023/06/20 04:34:08;;;;;;;10.15;5.82;;;18.50;99.90;;;;;;5052509;28;20021;-40
2023/06/20 04:36:34;;;;;;;9.30;5.20;;;18.50;99.90;;;;;;5052132;28;20025;-41
2023/06/20 04:39:00;;;;;;;14.85;5.57;;;18.50;99.90;;;;;;5052784;28;20045;-41
2023/06/20 04:41:25;;;;;;;9.90;5.70;;;18.60;99.90;;;;;;5052189;28;20117;-42
2023/06/20 04:43:51;;;;;;;8.25;5.22;;;18.60;99.90;;;;;;5052019;28;20047;-41
2023/06/20 04:46:17;;;;;;;9.90;5.40;;;18.60;99.90;;;;;;5052208;28;20047;-40
2023/06/20 04:48:44;;;;;;;12.23;6.25;;;18.60;99.90;;;;;;5051908;28;20043;-40
2023/06/20 04:51:10;;;;;;;10.13;5.53;;;18.60;99.90;;;;;;5052131;28;20033;-40
2023/06/20 04:53:36;;;;;;;9.77;6.03;;;18.60;99.90;;;;;;5052045;28;20123;-41
2023/06/20 04:56:02;;;;;;;10.00;5.80;;;18.60;99.90;;;;;;5051910;28;20432;-41
2023/06/20 04:58:28;;;;;;;12.80;6.05;;;18.70;99.90;;;;;;5052094;28;20041;-43
2023/06/20 05:00:58;;;;;;;10.98;6.25;;;18.70;99.90;;;;;;5051787;28;20043;-41
2023/06/20 05:03:24;;;;;;;9.55;5.47;;;18.70;99.90;;;;;;5050447;28;20074;-41
2023/06/20 05:05:50;;;;;;;10.75;6.43;;;18.70;99.90;;;;;;5051812;28;20864;-41
2023/06/20 05:08:16;;;;;;;11.50;5.65;;;18.70;99.90;;;;;;5051767;28;20142;-41
2023/06/20 05:10:41;;;;;;;9.93;5.68;;;18.70;99.90;;;;;;5051465;28;20478;-41
2023/06/20 05:13:07;;;;;;;10.55;5.70;;;18.70;99.90;;;;;;5051358;28;20043;-41
2023/06/20 05:15:33;;;;;;;9.23;5.00;;;18.70;99.90;;;;;;5051545;28;20029;-40
2023/06/20 05:17:59;;;;;;;11.38;5.57;;;18.70;99.90;;;;;;5051606;28;20048;-44
2023/06/20 05:20:24;;;;;;;8.85;5.28;;;18.80;99.90;;;;;;5051540;28;20036;-41
2023/06/20 05:22:50;;;;;;;11.63;5.97;;;18.70;99.90;;;;;;5051404;28;20103;-48
2023/06/20 05:25:16;;;;;;;9.07;5.22;;;18.80;99.90;;;;;;5050072;28;20029;-40
2023/06/20 05:27:42;;;;;;;9.55;5.60;;;18.80;99.90;;;;;;5051344;28;20029;-43
2023/06/20 05:30:08;;;;;;;12.45;6.70;;;18.80;99.90;;;;;;5051519;28;20035;-41
2023/06/20 05:32:34;;;;;;;13.25;5.63;;;18.80;99.90;;;;;;5083462;28;20048;-41
2023/06/20 05:35:00;;;;;;;9.18;5.45;;;18.80;99.90;;;;;;5051354;28;20073;-42
2023/06/20 05:37:28;;;;;;;10.27;6.50;;;18.80;99.90;;;;;;5051170;28;20146;-50
2023/06/20 05:39:53;;;;;;;10.05;5.60;;;18.80;99.90;;;;;;5051506;28;20206;-44
2023/06/20 05:42:19;;;;;;;9.40;5.35;;;18.80;99.90;;;;;;5051093;28;20420;-58
2023/06/20 05:44:44;;;;;;;10.65;6.30;;;18.80;99.90;;;;;;5050844;28;20028;-53
2023/06/20 05:47:17;;;;;;;10.82;5.28;;;18.80;99.90;;;;;;5050995;28;20155;-55
2023/06/20 05:49:49;;;;;;;9.23;5.60;;;18.80;99.90;;;;;;5051060;28;20029;-56
2023/06/20 05:52:15;;;;;;;13.10;6.43;;;18.80;99.90;;;;;;5050711;28;20131;-51
2023/06/20 05:54:43;;;;;;;14.90;6.28;;;18.80;99.90;;;;;;5051171;28;20037;-48
2023/06/20 06:14:00;;;;;;;8.20;5.15;;;18.60;99.90;;;;;;5083209;27;20445;-49
2023/06/20 06:16:26;;;;;;;8.68;5.25;;;18.10;99.90;;;;;;5068186;28;20115;-51
2023/06/20 06:18:51;;;;;;;8.32;4.53;;;18.10;99.90;;;;;;5067069;28;20052;-53
2023/06/20 06:21:17;;;;;;;10.52;5.35;;;18.10;99.90;;;;;;5067397;28;20024;-47
2023/06/20 06:23:43;;;;;;;9.50;5.40;;;18.10;99.90;;;;;;5066599;28;20020;-55
2023/06/20 06:26:09;;;;;;;11.48;5.43;;;18.00;99.90;;;;;;5067275;28;20021;-49
2023/06/20 06:28:34;;;;;;;13.75;5.40;;;18.00;99.90;;;;;;5067982;28;20108;-53
2023/06/20 06:31:07;;;;;;;9.50;4.82;;;18.00;99.90;;;;;;5062856;28;20466;-46
2023/06/20 06:33:33;;;;;;;14.20;5.18;;;18.00;99.90;;;;;;5053300;28;20098;-56
2023/06/20 06:35:59;;;;;;;9.18;5.10;;;18.00;99.90;;;;;;5055235;28;20009;-50
2023/06/20 06:38:25;;;;;;;9.93;5.53;;;18.00;99.90;;;;;;5061395;28;20380;-56
2023/06/20 06:40:54;;;;;;;7.00;4.22;;;18.00;99.90;;;;;;5065986;28;20021;-43
2023/06/20 06:43:20;;;;;;;6.22;3.90;;;18.10;99.90;;;;;;5052868;28;20039;-52
2023/06/20 06:45:46;;;;;;;7.68;4.18;;;18.10;99.90;;;;;;5054916;28;20025;-56
2023/06/20 06:48:12;;;;;;;5.70;3.53;;;18.10;99.90;;;;;;5054025;28;20037;-47
2023/06/20 06:50:37;;;;;;;7.15;4.05;;;18.00;99.90;;;;;;5057524;28;20473;-54
2023/06/20 06:53:03;;;;;;;8.15;4.20;;;18.00;99.90;;;;;;5055899;28;20049;-59
2023/06/20 06:55:28;;;;;;;7.43;4.30;;;18.00;99.90;;;;;;5053993;28;20104;-46
2023/06/20 06:57:54;;;;;;;8.35;4.22;;;18.10;99.90;;;;;;5056282;28;20437;-46
2023/06/20 07:00:20;;;;;;;6.28;3.85;;;18.10;99.90;;;;;;5065182;28;20549;-50
2023/06/20 07:02:45;;;;;;;9.55;4.30;;;18.10;99.90;;;;;;5064721;28;20066;-48
2023/06/20 07:05:12;;;;;;;8.10;4.50;;;18.20;99.90;;;;;;5060101;28;20081;-52
2023/06/20 07:07:38;;;;;;;7.80;4.88;;;18.10;99.90;;;;;;5060126;28;20650;-46
2023/06/20 07:10:04;;;;;;;7.75;4.70;;;18.20;99.90;;;;;;5049581;28;20048;-43
2023/06/20 07:12:29;;;;;;;7.97;4.72;;;18.20;99.90;;;;;;5056278;28;20075;-46
2023/06/20 07:14:56;;;;;;;8.98;4.90;;;18.20;99.90;;;;;;5043017;28;20021;-43
2023/06/20 07:17:25;;;;;;;9.45;4.78;;;18.30;99.90;;;;;;5044999;28;20033;-48
2023/06/20 07:19:51;;;;;;;8.18;4.43;;;18.40;99.90;;;;;;5043887;28;20385;-49
2023/06/20 07:22:17;;;;;;;7.40;4.82;;;18.40;99.90;;;;;;5038863;28;20026;-51
2023/06/20 07:24:43;;;;;;;8.00;4.57;;;18.40;99.90;;;;;;5039872;28;20047;-49
2023/06/20 07:27:08;;;;;;;11.20;5.53;;;18.50;99.90;;;;;;5040675;28;20468;-55
2023/06/20 07:29:34;;;;;;;8.63;4.85;;;18.60;99.90;;;;;;5038123;28;20029;-53
2023/06/20 07:31:59;;;;;;;11.55;5.65;;;18.60;99.90;;;;;;5037768;28;20060;-46
2023/06/20 07:34:25;;;;;;;9.85;5.95;;;18.60;99.90;;;;;;5037770;28;20017;-42
2023/06/20 07:36:50;;;;;;;10.05;6.10;;;18.70;99.90;;;;;;5041668;28;20108;-48
2023/06/20 07:39:16;;;;;;;9.40;6.07;;;18.70;99.90;;;;;;5038871;28;20018;-48
2023/06/20 07:41:42;;;;;;;14.40;6.55;;;18.70;99.90;;;;;;5039605;28;20168;-52
2023/06/20 07:44:10;;;;;;;16.17;5.55;;;18.80;99.90;;;;;;5049146;28;20393;-49
2023/06/20 07:46:36;;;;;;;14.77;7.18;;;18.80;99.90;;;;;;5042056;28;20041;-50
2023/06/20 07:49:02;;;;;;;10.32;6.13;;;18.90;99.90;;;;;;5045960;28;20040;-46
2023/06/20 07:51:31;;;;;;;11.00;6.68;;;19.00;99.90;;;;;;5044142;28;20022;-52
2023/06/20 07:53:56;;;;;;;12.65;6.72;;;19.10;99.90;;;;;;5047652;28;20033;-50
2023/06/20 07:56:22;;;;;;;11.23;6.28;;;19.10;99.90;;;;;;5042480;28;20083;-43
2023/06/20 07:58:47;;;;;;;12.40;6.63;;;19.10;99.90;;;;;;5047632;28;20040;-43
2023/06/20 08:01:13;;;;;;;12.05;6.97;;;19.10;99.90;;;;;;5043893;28;20489;-45
2023/06/20 08:03:39;;;;;;;10.52;6.75;;;19.10;99.90;;;;;;5046318;28;20021;-44
2023/06/20 08:06:05;;;;;;;9.57;6.07;;;19.20;99.90;;;;;;5037001;28;20029;-46
2023/06/20 08:08:30;;;;;;;10.20;6.53;;;19.20;99.90;;;;;;5032375;28;20026;-51
2023/06/20 08:10:56;;;;;;;8.73;6.35;;;19.20;99.90;;;;;;5033083;28;20072;-45
2023/06/20 08:13:23;;;;;;;9.40;5.95;;;19.20;99.90;;;;;;5047984;28;20056;-49
2023/06/20 08:15:48;;;;;;;9.85;6.07;;;19.30;99.90;;;;;;5052376;28;20027;-52
2023/06/20 08:18:14;;;;;;;12.25;6.63;;;19.20;99.90;;;;;;5052417;28;20119;-48
2023/06/20 08:20:41;;;;;;;9.27;6.40;;;19.30;99.90;;;;;;5052020;28;20365;-48
2023/06/20 08:23:07;;;;;;;13.20;6.72;;;19.40;99.90;;;;;;5051842;28;20100;-49
2023/06/20 08:25:33;;;;;;;12.68;6.10;;;19.40;99.90;;;;;;5051261;28;20056;-46
2023/06/20 08:27:59;;;;;;;9.13;6.47;;;19.30;99.90;;;;;;5051472;28;20385;-44
2023/06/20 08:30:25;;;;;;;8.88;5.75;;;19.30;99.90;;;;;;5035312;28;20044;-48
2023/06/20 08:32:51;;;;;;;11.48;6.70;;;19.30;99.90;;;;;;5035794;28;20046;-51
2023/06/20 08:35:16;;;;;;;9.98;6.10;;;19.30;99.90;;;;;;5039398;28;20025;-50
2023/06/20 08:37:42;;;;;;;9.15;6.30;;;19.20;99.90;;;;;;5035772;28;20037;-52
2023/06/20 08:40:12;;;;;;;14.80;6.68;;;19.20;99.90;;;;;;5037313;28;20084;-48
2023/06/20 08:42:38;;;;;;;11.38;5.95;;;19.20;99.90;;;;;;5040899;28;20036;-46
2023/06/20 08:45:05;;;;;;;12.57;6.18;;;19.20;99.90;;;;;;5040425;28;20022;-44
2023/06/20 08:47:31;;;;;;;9.50;6.32;;;19.20;99.90;;;;;;5036456;28;20013;-46
2023/06/20 08:49:57;;;;;;;10.90;6.28;;;19.30;99.90;;;;;;5033595;28;20048;-47
2023/06/20 08:52:28;;;;;;;13.15;6.25;;;19.20;99.90;;;;;;5037102;28;20119;-52
2023/06/20 08:54:54;;;;;;;9.80;6.38;;;19.20;99.90;;;;;;5033540;28;20032;-45
2023/06/20 08:57:20;;;;;;;9.30;5.63;;;19.20;99.90;;;;;;5036591;28;20032;-51
2023/06/20 08:59:46;;;;;;;10.50;6.05;;;19.20;99.90;;;;;;5033840;28;20025;-47
2023/06/20 09:02:12;;;;;;;9.90;6.35;;;19.20;99.90;;;;;;5036655;28;20379;-50
2023/06/20 09:04:38;;;;;;;12.23;6.65;;;19.20;99.90;;;;;;5037397;28;20036;-44
2023/06/20 09:07:25;;;;;;;14.73;6.90;;;19.30;99.90;;;;;;5035379;28;20033;-53
2023/06/20 09:09:50;;;;;;;11.95;6.47;;;19.30;99.90;;;;;;5034987;28;20017;-49
2023/06/20 09:12:17;;;;;;;11.05;5.93;;;19.40;99.90;;;;;;5041340;28;20041;-52
2023/06/20 09:14:46;;;;;;;12.45;6.75;;;19.60;99.90;;;;;;5050502;28;20378;-53
2023/06/20 09:17:12;;;;;;;10.98;6.88;;;19.70;99.90;;;;;;5051204;28;20013;-48
2023/06/20 09:19:43;;;;;;;12.88;7.32;;;19.80;99.90;;;;;;5051214;28;20083;-50
2023/06/20 09:22:12;;;;;;;12.48;7.30;;;20.00;99.90;;;;;;5050949;28;20026;-51
2023/06/20 09:24:45;;;;;;;15.65;7.03;;;20.30;99.90;;;;;;5051074;28;20025;-49
2023/06/20 09:27:11;;;;;;;12.13;6.72;;;20.70;99.90;;;;;;5050808;28;20431;-44
2023/06/20 09:29:53;;;;;;;9.98;6.05;;;21.30;99.90;;;;;;5050933;28;20055;-49
2023/06/20 09:32:22;;;;;;;9.50;5.93;;;21.90;99.90;;;;;;5050898;28;20037;-48
2023/06/20 09:34:49;;;;;;;10.23;5.88;;;22.20;99.90;;;;;;5051020;28;20040;-46
2023/06/20 09:37:17;;;;;;;8.10;5.25;;;22.50;99.90;;;;;;5050532;28;20025;-44
2023/06/20 09:39:42;;;;;;;6.93;4.70;;;22.80;99.90;;;;;;5051012;28;20107;-44
2023/06/20 09:42:14;;;;;;;7.03;4.35;;;22.80;99.90;;;;;;5050382;28;20120;-45
2023/06/20 09:44:40;;;;;;;5.95;3.90;;;22.70;99.90;;;;;;5050860;28;20029;-52
2023/06/20 09:47:06;;;;;;;6.93;3.88;;;22.70;99.90;;;;;;5050714;28;20037;-49
2023/06/20 09:49:34;;;;;;;7.63;4.55;;;22.60;99.90;;;;;;5050650;28;20024;-43
2023/06/20 09:52:07;;;;;;;8.07;3.88;;;22.60;99.90;;;;;;5050515;28;20396;-47
2023/06/20 09:54:58;;;;;;;5.93;3.72;;;22.60;99.90;;;;;;5050599;28;20071;-45
2023/06/20 09:57:38;;;;;;;6.10;3.55;;;22.80;99.90;;;;;;5050511;28;20559;-47
2023/06/20 10:00:11;;;;;;;5.82;3.50;;;23.00;99.90;;;;;;5050652;28;20064;-45
2023/06/20 10:02:39;;;;;;;6.45;3.78;;;22.70;99.90;;;;;;5050493;28;20029;-45
2023/06/20 10:05:06;;;;;;;7.05;3.58;;;22.60;99.90;;;;;;5049290;28;20021;-43
2023/06/20 10:07:33;;;;;;;14.40;3.45;;;22.50;99.90;;;;;;5050565;28;20025;-43
2023/06/20 10:10:00;;;;;;;5.13;2.83;;;22.30;99.90;;;;;;5050434;28;20017;-46
2023/06/20 10:12:27;;;;;;;4.53;2.83;;;22.20;99.90;;;;;;5049972;28;20049;-49
2023/06/20 10:14:54;;;;;;;5.40;3.17;;;22.30;99.90;;;;;;5049961;28;20564;-55
2023/06/20 10:17:30;;;;;;;5.47;2.80;;;22.60;99.90;;;;;;5050389;28;20465;-50
2023/06/20 10:19:58;;;;;;;5.13;2.70;;;22.70;99.90;;;;;;5049270;28;20013;-44
2023/06/20 10:22:37;;;;;;;4.45;2.17;;;22.90;99.90;;;;;;5043851;28;20484;-47
2023/06/20 10:25:11;;;;;;;4.38;2.30;;;23.00;99.90;;;;;;5047092;28;20559;-44
2023/06/20 10:27:38;;;;;;;3.83;1.70;;;23.00;99.90;;;;;;5040988;28;20032;-45
2023/06/20 10:30:06;;;;;;;2.70;1.63;;;23.00;99.90;;;;;;5048160;28;20025;-44
2023/06/20 10:32:31;;;;;;;2.97;1.45;;;22.70;99.90;;;;;;5043488;28;20041;-52
2023/06/20 10:35:04;;;;;;;2.78;1.33;;;22.50;99.90;;;;;;5047559;28;20037;-45
2023/06/20 10:37:30;;;;;;;1.98;1.23;;;22.50;99.90;;;;;;5047310;28;20017;-45
2023/06/20 10:39:57;;;;;;;3.13;1.80;;;22.60;99.90;;;;;;5049720;28;20025;-42
2023/06/20 10:42:34;;;;;;;2.17;1.25;;;22.80;99.90;;;;;;5047421;28;20674;-39
2023/06/20 10:45:24;;;;;;;1.88;1.10;;;23.00;99.90;;;;;;5036219;28;20113;-49
2023/06/20 10:47:50;;;;;;;2.45;1.13;;;23.30;99.90;;;;;;5030158;28;20441;-44
2023/06/20 10:50:16;;;;;;;2.70;1.10;;;23.20;99.90;;;;;;5034551;28;20040;-45
2023/06/20 10:52:42;;;;;;;3.10;1.40;;;23.10;99.90;;;;;;5036319;28;20055;-45
2023/06/20 10:55:26;;;;;;;2.22;1.27;;;23.10;99.90;;;;;;5035199;28;20034;-49
2023/06/20 10:57:53;;;;;;;2.75;1.42;;;23.00;99.90;;;;;;5036166;28;20049;-54
2023/06/20 11:00:21;;;;;;;2.25;1.20;;;22.80;99.90;;;;;;5035021;28;20036;-47
2023/06/20 11:02:49;;;;;;;2.72;1.52;;;22.50;99.90;;;;;;5035779;28;20393;-46
2023/06/20 11:05:15;;;;;;;3.33;1.60;;;22.20;99.90;;;;;;5040700;28;20108;-44
2023/06/20 11:07:54;;;;;;;3.10;1.73;;;21.90;99.90;;;;;;5043762;28;20103;-43
2023/06/20 11:10:21;;;;;;;2.83;1.67;;;21.80;99.90;;;;;;5042479;28;20717;-44
2023/06/20 11:12:47;;;;;;;2.55;1.70;;;21.80;99.90;;;;;;5048861;28;20107;-53
2023/06/20 11:15:24;;;;;;;2.83;1.63;;;21.80;99.90;;;;;;5053053;28;20052;-49
2023/06/20 11:17:51;;;;;;;2.60;1.80;;;21.80;99.90;;;;;;5040461;28;20584;-52
2023/06/20 11:20:17;;;;;;;2.97;1.60;;;22.00;99.90;;;;;;5053271;28;20020;-49
2023/06/20 11:22:45;;;;;;;2.70;1.60;;;22.00;99.90;;;;;;5053246;28;20040;-53
2023/06/20 11:25:11;;;;;;;2.90;1.80;;;21.90;99.90;;;;;;5053114;28;20116;-59
2023/06/20 11:27:37;;;;;;;2.28;1.40;;;21.80;99.90;;;;;;5052989;28;20100;-48
2023/06/20 11:30:03;;;;;;;3.08;1.80;;;21.60;99.90;;;;;;5052984;28;20374;-45
2023/06/20 11:32:29;;;;;;;2.63;1.63;;;21.40;99.90;;;;;;5052885;28;20528;-52
2023/06/20 11:34:59;;;;;;;4.95;1.85;;;21.40;99.90;;;;;;5053023;28;20052;-55
2023/06/20 11:37:25;;;;;;;2.40;1.65;;;21.30;99.90;;;;;;5052926;28;20392;-52
2023/06/20 11:39:52;;;;;;;2.28;1.42;;;21.40;99.90;;;;;;5052859;28;20392;-42
2023/06/20 11:42:18;;;;;;;4.30;1.65;;;21.40;99.90;;;;;;5052697;28;20050;-54
2023/06/20 11:44:44;;;;;;;4.32;1.60;;;21.30;99.90;;;;;;5052632;28;20033;-55
2023/06/20 11:47:10;;;;;;;5.97;1.75;;;21.20;99.90;;;;;;5042973;28;20036;-47
2023/06/20 11:49:39;;;;;;;2.28;1.55;;;21.20;99.90;;;;;;5045209;28;20028;-44
2023/06/20 11:52:07;;;;;;;2.97;1.50;;;21.20;99.90;;;;;;5033571;28;20057;-42
2023/06/20 11:54:51;;;;;;;3.63;1.67;;;21.20;99.90;;;;;;5034340;28;20453;-47
2023/06/20 11:57:28;;;;;;;2.75;1.55;;;21.40;99.90;;;;;;5042363;28;20128;-42
2023/06/20 11:59:59;;;;;;;3.50;1.80;;;21.40;99.90;;;;;;5046552;28;20057;-48
2023/06/20 12:02:26;;;;;;;3.00;1.45;;;21.40;99.90;;;;;;5052313;28;20035;-44
2023/06/20 12:04:56;;;;;;;5.25;1.60;;;21.40;99.90;;;;;;5052325;28;20021;-54
2023/06/20 12:07:25;;;;;;;2.08;1.30;;;21.40;99.90;;;;;;5043765;28;20045;-52
2023/06/20 12:09:51;;;;;;;2.93;1.40;;;21.40;99.90;;;;;;5040862;28;20480;-47
2023/06/20 12:12:16;;;;;;;2.85;1.85;;;21.40;99.90;;;;;;5044930;28;20124;-43
2023/06/20 12:14:43;;;;;;;1.73;1.10;;;21.30;99.90;;;;;;5052343;28;20054;-45
2023/06/20 12:17:09;;;;;;;2.45;1.15;;;21.30;99.90;;;;;;5054548;28;20104;-47
2023/06/20 12:19:34;;;;;;;2.80;1.15;;;21.40;99.90;;;;;;5050667;28;20119;-42
2023/06/20 12:22:00;;;;;;;1.90;1.08;;;21.50;99.90;;;;;;5038061;28;20021;-48
2023/06/20 12:24:28;;;;;;;2.55;1.30;;;21.40;99.90;;;;;;5044219;28;20029;-51
2023/06/20 12:26:54;;;;;;;2.33;1.30;;;21.50;99.90;;;;;;5045433;28;20102;-50
2023/06/20 12:29:20;;;;;;;3.33;1.52;;;21.50;99.90;;;;;;5031776;28;20128;-43
2023/06/20 12:31:46;;;;;;;3.58;1.63;;;21.30;99.90;;;;;;5039349;28;20040;-51
2023/06/20 12:34:11;;;;;;;2.05;1.35;;;21.30;99.90;;;;;;5039263;28;20013;-46
2023/06/20 12:36:37;;;;;;;3.03;1.50;;;21.40;99.90;;;;;;5034337;28;20048;-43
2023/06/20 12:39:03;;;;;;;5.32;1.88;;;21.50;99.90;;;;;;5035547;28;20111;-44
2023/06/20 12:41:35;;;;;;;3.30;1.70;;;21.70;99.90;;;;;;5044604;28;20032;-49
2023/06/20 12:44:02;;;;;;;2.45;1.70;;;21.70;99.90;;;;;;5048017;28;20025;-47
2023/06/20 12:46:28;;;;;;;2.90;1.73;;;21.60;99.90;;;;;;5047453;28;20049;-43
2023/06/20 12:48:54;;;;;;;3.47;1.75;;;21.70;99.90;;;;;;5051393;28;20118;-45
2023/06/20 12:51:20;;;;;;;2.33;1.40;;;21.60;99.90;;;;;;5043344;28;20740;-47
2023/06/20 12:53:49;;;;;;;2.70;1.58;;;21.60;99.90;;;;;;5041043;28;20041;-49
2023/06/20 12:56:15;;;;;;;2.43;1.47;;;21.50;99.90;;;;;;5042365;28;20028;-41
2023/06/20 12:58:41;;;;;;;6.00;1.98;;;21.50;99.90;;;;;;5035421;28;20541;-51
2023/06/20 13:01:06;;;;;;;7.53;2.00;;;21.50;99.90;;;;;;5038048;28;20097;-48
2023/06/20 13:03:32;;;;;;;4.32;1.60;;;21.50;99.90;;;;;;5038278;28;20026;-47
2023/06/20 13:05:58;;;;;;;3.75;1.70;;;21.40;99.90;;;;;;5036272;28;20056;-44